Time;durP1;ratioP1;P1;durP2;ratioP2;P2;SDS_P1;SDS_P2;PMS_P1;PMS_P2;Temp;Humidity;BMP_temperature;BMP_pressure;BME280_temperature;BME280_humidity;BME280_pressure;Samples;Min_cycle;Max_cycle;Signal;HPM_P1;HPM_P2
2023/07/10 00:01:31;;;;;;;11.95;6.90;;;;;;;;;;5091695;28;20105;-83
2023/07/10 00:03:59;;;;;;;10.23;6.45;;;;;;;;;;5093101;28;20044;-83
2023/07/10 00:06:26;;;;;;;14.15;6.10;;;;;;;;;;5093009;28;20058;-82
2023/07/10 00:08:54;;;;;;;8.60;5.93;;;;;;;;;;5091883;28;20048;-82
2023/07/10 00:11:30;;;;;;;10.50;7.00;;;;;;;;;;5091318;28;20048;-82
2023/07/10 00:13:58;;;;;;;10.73;6.60;;;;;;;;;;5093553;28;20044;-82
2023/07/10 00:16:25;;;;;;;8.85;6.47;;;;;;;;;;5092860;28;20062;-82
2023/07/10 00:18:53;;;;;;;9.43;5.97;;;;;;;;;;5091360;28;20113;-82
2023/07/10 00:21:20;;;;;;;11.38;7.05;;;;;;;;;;5091434;28;20052;-81
2023/07/10 00:23:48;;;;;;;11.93;6.93;;;;;;;;;;5091961;28;20052;-82
2023/07/10 00:26:23;;;;;;;7.88;6.60;;;;;;;;;;5091765;28;20101;-82
2023/07/10 00:28:51;;;;;;;8.07;6.85;;;;;;;;;;5091317;28;20048;-82
2023/07/10 00:31:19;;;;;;;8.85;6.32;;;;;;;;;;5091390;28;20048;-82
2023/07/10 00:33:47;;;;;;;7.28;6.50;;;;;;;;;;5091364;28;20056;-81
2023/07/10 00:36:27;;;;;;;11.10;6.07;;;;;;;;;;5092928;28;20440;-81
2023/07/10 00:38:54;;;;;;;9.60;6.10;;;;;;;;;;5091627;28;20044;-82
2023/07/10 00:41:23;;;;;;;11.32;7.15;;;;;;;;;;5091340;28;20052;-82
2023/07/10 00:43:53;;;;;;;10.13;6.80;;;;;;;;;;5092468;28;20047;-82
2023/07/10 00:46:25;;;;;;;9.77;6.57;;;;;;;;;;5091321;28;20420;-82
2023/07/10 00:48:54;;;;;;;9.25;6.18;;;;;;;;;;5092765;28;20059;-82
2023/07/10 00:51:25;;;;;;;9.70;6.70;;;;;;;;;;5090813;28;20321;-82
2023/07/10 00:53:53;;;;;;;9.30;6.78;;;;;;;;;;5091082;28;20416;-81
2023/07/10 00:56:21;;;;;;;13.05;7.30;;;;;;;;;;5095977;28;20059;-81
2023/07/10 00:58:49;;;;;;;7.95;6.85;;;;;;;;;;5096468;28;20109;-82
2023/07/10 01:01:17;;;;;;;10.23;6.43;;;;;;;;;;5095204;28;20048;-81
2023/07/10 01:03:45;;;;;;;8.60;6.70;;;;;;;;;;5095393;28;20476;-82
2023/07/10 01:06:22;;;;;;;8.98;6.93;;;;;;;;;;5096419;28;20074;-82
2023/07/10 01:08:50;;;;;;;8.63;6.43;;;;;;;;;;5096454;28;20052;-82
2023/07/10 01:11:19;;;;;;;14.68;6.90;;;;;;;;;;5096058;28;20048;-82
2023/07/10 01:13:48;;;;;;;7.82;6.80;;;;;;;;;;5095248;28;20052;-82
2023/07/10 01:16:15;;;;;;;8.32;6.68;;;;;;;;;;5096343;28;20135;-82
2023/07/10 01:18:43;;;;;;;10.57;7.13;;;;;;;;;;5095370;28;20446;-84
2023/07/10 01:21:13;;;;;;;11.27;7.32;;;;;;;;;;5094926;28;20051;-84
2023/07/10 01:23:40;;;;;;;14.15;7.15;;;;;;;;;;5094825;28;20051;-84
2023/07/10 01:26:08;;;;;;;10.38;7.00;;;;;;;;;;5094875;28;20085;-84
2023/07/10 01:28:36;;;;;;;11.25;7.68;;;;;;;;;;5096248;28;20083;-83
2023/07/10 01:31:05;;;;;;;11.05;7.03;;;;;;;;;;5094858;28;20040;-84
2023/07/10 01:33:36;;;;;;;9.60;7.32;;;;;;;;;;5095966;28;20055;-84
2023/07/10 01:36:04;;;;;;;9.50;7.30;;;;;;;;;;5094794;28;20044;-84
2023/07/10 01:38:35;;;;;;;10.60;7.18;;;;;;;;;;5094470;28;20108;-84
2023/07/10 01:41:05;;;;;;;10.13;6.70;;;;;;;;;;5094736;28;20052;-84
2023/07/10 01:43:32;;;;;;;11.60;6.57;;;;;;;;;;5094905;28;20081;-85
2023/07/10 01:45:59;;;;;;;9.15;7.13;;;;;;;;;;5095827;28;20074;-83
2023/07/10 01:48:28;;;;;;;9.88;7.53;;;;;;;;;;5094432;28;20044;-84
2023/07/10 01:50:56;;;;;;;11.00;7.30;;;;;;;;;;5094435;28;20062;-85
2023/07/10 01:53:23;;;;;;;11.98;6.95;;;;;;;;;;5095889;28;20048;-85
2023/07/10 01:55:50;;;;;;;9.85;7.25;;;;;;;;;;5095785;28;20101;-84
2023/07/10 01:58:18;;;;;;;9.70;7.22;;;;;;;;;;5094427;28;20097;-84
2023/07/10 02:00:45;;;;;;;11.20;7.65;;;;;;;;;;5094113;28;20082;-84
2023/07/10 02:03:12;;;;;;;9.05;7.25;;;;;;;;;;5094006;28;20477;-84
2023/07/10 02:05:39;;;;;;;8.57;7.22;;;;;;;;;;5094551;28;20515;-85
2023/07/10 02:08:07;;;;;;;9.52;7.43;;;;;;;;;;5095457;28;20468;-84
2023/07/10 02:10:34;;;;;;;16.63;7.53;;;;;;;;;;5095187;28;20048;-84
2023/07/10 02:13:11;;;;;;;9.73;7.50;;;;;;;;;;5094937;28;20055;-85
2023/07/10 02:15:38;;;;;;;9.35;7.28;;;;;;;;;;5094065;28;20051;-84
2023/07/10 02:18:05;;;;;;;10.25;7.65;;;;;;;;;;5093851;28;20197;-84
2023/07/10 02:20:33;;;;;;;11.30;7.30;;;;;;;;;;5093546;28;20044;-85
2023/07/10 02:23:00;;;;;;;9.15;6.80;;;;;;;;;;5093930;28;20377;-84
2023/07/10 02:25:28;;;;;;;8.95;7.68;;;;;;;;;;5093764;28;20075;-85
2023/07/10 02:27:55;;;;;;;9.23;7.30;;;;;;;;;;5093660;28;20499;-84
2023/07/10 02:30:22;;;;;;;10.63;7.40;;;;;;;;;;5093321;28;20082;-84
2023/07/10 02:32:50;;;;;;;11.82;7.40;;;;;;;;;;5094734;28;20048;-85
2023/07/10 02:35:17;;;;;;;8.70;7.38;;;;;;;;;;5093674;28;20086;-84
2023/07/10 02:37:44;;;;;;;14.85;8.00;;;;;;;;;;5094927;28;20465;-85
2023/07/10 02:40:11;;;;;;;8.38;7.40;;;;;;;;;;5093307;28;20052;-85
2023/07/10 02:42:39;;;;;;;9.80;7.15;;;;;;;;;;5093165;28;20088;-85
2023/07/10 02:45:06;;;;;;;11.45;7.28;;;;;;;;;;5093219;28;20101;-85
2023/07/10 02:47:34;;;;;;;13.57;7.40;;;;;;;;;;5093588;28;20048;-85
2023/07/10 02:50:01;;;;;;;8.60;7.55;;;;;;;;;;5093314;28;20066;-85
2023/07/10 02:52:28;;;;;;;9.25;7.65;;;;;;;;;;5092925;28;20484;-85
2023/07/10 02:54:55;;;;;;;9.45;7.65;;;;;;;;;;5093151;28;20044;-85
2023/07/10 02:57:23;;;;;;;15.32;7.85;;;;;;;;;;5092938;28;20048;-85
2023/07/10 02:59:50;;;;;;;10.80;7.75;;;;;;;;;;5094290;28;20048;-84
2023/07/10 03:02:17;;;;;;;11.43;8.10;;;;;;;;;;5093883;28;20442;-85
2023/07/10 03:04:45;;;;;;;9.07;8.18;;;;;;;;;;5094445;28;20052;-85
2023/07/10 03:07:12;;;;;;;14.85;8.65;;;;;;;;;;5092969;28;20047;-84
2023/07/10 03:09:39;;;;;;;12.02;8.48;;;;;;;;;;5092800;28;20048;-85
2023/07/10 03:12:07;;;;;;;9.55;7.45;;;;;;;;;;5092483;28;20067;-85
2023/07/10 03:14:34;;;;;;;9.90;8.60;;;;;;;;;;5092861;28;20106;-85
2023/07/10 03:17:03;;;;;;;9.00;8.02;;;;;;;;;;5091819;28;20447;-84
2023/07/10 03:19:31;;;;;;;9.20;8.15;;;;;;;;;;5092629;28;20052;-85
2023/07/10 03:21:59;;;;;;;11.32;8.18;;;;;;;;;;5092409;28;20055;-85
2023/07/10 03:24:26;;;;;;;10.32;7.68;;;;;;;;;;5092470;28;20047;-85
2023/07/10 03:26:53;;;;;;;13.00;8.23;;;;;;;;;;5092463;28;20523;-85
2023/07/10 03:29:20;;;;;;;12.77;8.30;;;;;;;;;;5092217;28;20459;-85
2023/07/10 03:31:47;;;;;;;14.27;7.38;;;;;;;;;;5093373;28;20113;-85
2023/07/10 03:34:15;;;;;;;10.23;7.28;;;;;;;;;;5092160;28;20080;-84
2023/07/10 03:36:42;;;;;;;10.57;7.75;;;;;;;;;;5092393;28;20055;-84
2023/07/10 03:39:12;;;;;;;15.00;7.90;;;;;;;;;;5091802;28;20097;-84
2023/07/10 03:41:39;;;;;;;9.18;7.65;;;;;;;;;;5091943;28;20052;-83
2023/07/10 03:44:07;;;;;;;10.82;7.55;;;;;;;;;;5093423;28;20146;-84
2023/07/10 03:46:34;;;;;;;11.57;7.60;;;;;;;;;;5092453;28;20102;-84
2023/07/10 03:49:01;;;;;;;9.45;7.85;;;;;;;;;;5092077;28;20101;-84
2023/07/10 03:51:29;;;;;;;22.92;8.25;;;;;;;;;;5092777;28;20052;-84
2023/07/10 03:53:56;;;;;;;14.68;8.00;;;;;;;;;;5093187;28;20052;-84
2023/07/10 03:56:23;;;;;;;12.43;7.45;;;;;;;;;;5091840;28;20480;-84
2023/07/10 03:58:50;;;;;;;11.48;7.47;;;;;;;;;;5093021;28;20044;-84
2023/07/10 04:01:18;;;;;;;10.80;7.80;;;;;;;;;;5091640;28;20100;-84
2023/07/10 04:03:45;;;;;;;13.00;7.70;;;;;;;;;;5091796;28;20071;-84
2023/07/10 04:06:13;;;;;;;34.17;9.32;;;;;;;;;;5092578;28;20147;-84
2023/07/10 04:08:42;;;;;;;11.55;8.18;;;;;;;;;;5091661;28;20086;-84
2023/07/10 04:11:14;;;;;;;21.85;8.93;;;;;;;;;;5092751;28;20048;-84
2023/07/10 04:13:41;;;;;;;14.27;7.93;;;;;;;;;;5091800;28;20059;-85
2023/07/10 04:16:12;;;;;;;18.33;8.70;;;;;;;;;;5091403;28;20131;-85
2023/07/10 04:18:40;;;;;;;17.52;8.65;;;;;;;;;;5093213;28;20048;-85
2023/07/10 04:21:09;;;;;;;10.63;8.38;;;;;;;;;;5091545;28;20047;-84
2023/07/10 04:23:36;;;;;;;12.27;8.77;;;;;;;;;;5093101;28;20052;-83
2023/07/10 04:26:04;;;;;;;10.35;8.45;;;;;;;;;;5091469;28;20500;-83
2023/07/10 04:28:31;;;;;;;22.02;10.52;;;;;;;;;;5091510;28;20068;-84
2023/07/10 04:30:59;;;;;;;29.17;18.88;;;;;;;;;;5092544;28;20411;-83
2023/07/10 04:33:26;;;;;;;35.42;22.95;;;;;;;;;;5092839;28;20499;-84
2023/07/10 04:35:54;;;;;;;25.00;14.45;;;;;;;;;;5091430;28;20051;-83
2023/07/10 04:38:23;;;;;;;24.60;13.73;;;;;;;;;;5091136;28;20048;-84
2023/07/10 04:40:51;;;;;;;16.65;12.38;;;;;;;;;;5091120;28;20048;-83
2023/07/10 04:43:19;;;;;;;16.38;11.45;;;;;;;;;;5090809;28;20529;-83
2023/07/10 04:45:46;;;;;;;25.95;16.48;;;;;;;;;;5092127;28;20070;-83
2023/07/10 04:48:13;;;;;;;27.70;19.58;;;;;;;;;;5090904;28;20530;-83
2023/07/10 04:50:44;;;;;;;21.60;10.75;;;;;;;;;;5091032;28;20052;-84
2023/07/10 04:53:12;;;;;;;15.38;9.98;;;;;;;;;;5092009;28;20093;-83
2023/07/10 04:55:39;;;;;;;14.80;9.13;;;;;;;;;;5092205;28;20048;-84
2023/07/10 04:58:06;;;;;;;18.48;8.82;;;;;;;;;;5092074;28;20075;-83
2023/07/10 05:00:34;;;;;;;13.43;8.38;;;;;;;;;;5090955;28;20109;-83
2023/07/10 05:03:01;;;;;;;15.73;7.95;;;;;;;;;;5090936;28;20048;-83
2023/07/10 05:05:29;;;;;;;12.52;8.13;;;;;;;;;;5090980;28;20052;-83
2023/07/10 05:07:56;;;;;;;17.70;8.65;;;;;;;;;;5090980;28;20048;-83
2023/07/10 05:10:23;;;;;;;11.93;8.98;;;;;;;;;;5091942;28;20048;-83
2023/07/10 05:12:50;;;;;;;17.15;8.82;;;;;;;;;;5091430;28;20074;-81
2023/07/10 05:15:19;;;;;;;10.60;7.47;;;;;;;;;;5090639;28;20106;-83
2023/07/10 05:17:47;;;;;;;15.88;7.85;;;;;;;;;;5090960;28;20076;-81
2023/07/10 05:20:15;;;;;;;13.02;7.45;;;;;;;;;;5090698;28;20412;-81
2023/07/10 05:22:42;;;;;;;17.10;8.00;;;;;;;;;;5090766;28;20048;-80
2023/07/10 05:25:09;;;;;;;9.25;7.47;;;;;;;;;;5090425;28;20097;-81
2023/07/10 05:27:37;;;;;;;10.20;7.53;;;;;;;;;;5091823;28;20388;-81
2023/07/10 05:30:05;;;;;;;14.00;7.05;;;;;;;;;;5090700;28;20090;-81
2023/07/10 05:32:32;;;;;;;13.10;7.15;;;;;;;;;;5090710;28;20126;-81
2023/07/10 05:34:59;;;;;;;9.32;7.18;;;;;;;;;;5091789;28;20052;-81
2023/07/10 05:37:26;;;;;;;9.88;7.00;;;;;;;;;;5091722;28;20093;-81
2023/07/10 05:39:54;;;;;;;9.05;6.68;;;;;;;;;;5090594;28;20385;-81
2023/07/10 05:42:21;;;;;;;9.60;7.25;;;;;;;;;;5093695;28;20101;-82
2023/07/10 05:44:48;;;;;;;9.48;7.85;;;;;;;;;;5094463;28;20044;-81
2023/07/10 05:47:16;;;;;;;9.40;7.10;;;;;;;;;;5095380;28;20105;-81
2023/07/10 05:49:43;;;;;;;8.48;7.65;;;;;;;;;;5094379;28;20422;-82
2023/07/10 05:52:10;;;;;;;15.88;7.60;;;;;;;;;;5094014;28;20052;-82
2023/07/10 05:54:38;;;;;;;13.40;7.40;;;;;;;;;;5093957;28;20471;-81
2023/07/10 05:57:05;;;;;;;9.90;7.40;;;;;;;;;;5094139;28;20091;-81
2023/07/10 05:59:32;;;;;;;9.60;7.75;;;;;;;;;;5094130;28;20069;-81
2023/07/10 06:02:00;;;;;;;9.38;7.28;;;;;;;;;;5095121;28;20135;-81
2023/07/10 06:04:27;;;;;;;11.55;7.70;;;;;;;;;;5095228;28;20044;-81
2023/07/10 06:06:55;;;;;;;8.27;7.32;;;;;;;;;;5095251;28;20052;-81
2023/07/10 06:09:22;;;;;;;13.70;7.13;;;;;;;;;;5093682;28;20044;-81
2023/07/10 06:11:49;;;;;;;12.13;7.68;;;;;;;;;;5093675;28;20101;-81
2023/07/10 06:14:16;;;;;;;10.25;7.20;;;;;;;;;;5093875;28;20109;-81
2023/07/10 06:16:44;;;;;;;7.97;6.75;;;;;;;;;;5095041;28;20549;-81
2023/07/10 06:19:11;;;;;;;13.40;7.53;;;;;;;;;;5093680;28;20050;-81
2023/07/10 06:21:38;;;;;;;12.77;7.75;;;;;;;;;;5093402;28;20446;-81
2023/07/10 06:24:07;;;;;;;13.90;7.13;;;;;;;;;;5093476;28;20044;-82
2023/07/10 06:26:34;;;;;;;8.77;7.82;;;;;;;;;;5093517;28;20052;-81
2023/07/10 06:29:01;;;;;;;9.43;7.45;;;;;;;;;;5095162;28;20480;-80
2023/07/10 06:31:28;;;;;;;10.18;8.07;;;;;;;;;;5093416;28;20048;-81
2023/07/10 06:33:56;;;;;;;12.27;7.25;;;;;;;;;;5093623;28;20075;-81
2023/07/10 06:36:23;;;;;;;12.05;7.65;;;;;;;;;;5094491;28;20044;-81
2023/07/10 06:38:50;;;;;;;12.82;6.97;;;;;;;;;;5094923;28;20048;-81
2023/07/10 06:41:17;;;;;;;14.32;7.07;;;;;;;;;;5094458;28;20113;-81
2023/07/10 06:43:45;;;;;;;13.25;7.65;;;;;;;;;;5093370;28;20047;-81
2023/07/10 06:46:12;;;;;;;15.50;7.63;;;;;;;;;;5093241;28;20493;-81
2023/07/10 06:48:39;;;;;;;19.55;7.82;;;;;;;;;;5094318;28;20048;-81
2023/07/10 06:51:07;;;;;;;10.88;7.07;;;;;;;;;;5094310;28;20048;-81
2023/07/10 06:53:34;;;;;;;9.77;7.50;;;;;;;;;;5093284;28;20508;-81
2023/07/10 06:56:02;;;;;;;11.38;6.53;;;;;;;;;;5093268;28;20044;-81
2023/07/10 06:58:30;;;;;;;10.65;6.43;;;;;;;;;;5093103;28;20052;-81
2023/07/10 07:00:59;;;;;;;25.10;8.35;;;;;;;;;;5092879;28;20488;-83
2023/07/10 07:03:27;;;;;;;12.95;7.88;;;;;;;;;;5093215;28;20461;-83
2023/07/10 07:05:54;;;;;;;17.02;7.55;;;;;;;;;;5093151;28;20097;-82
2023/07/10 07:08:22;;;;;;;13.13;7.38;;;;;;;;;;5093174;28;20130;-82
2023/07/10 07:10:50;;;;;;;23.98;7.53;;;;;;;;;;5093116;28;20476;-84
2023/07/10 07:13:18;;;;;;;10.95;7.13;;;;;;;;;;5093127;28;20090;-84
2023/07/10 07:15:49;;;;;;;12.93;6.13;;;;;;;;;;5093121;28;20051;-84
2023/07/10 07:18:16;;;;;;;10.05;5.85;;;;;;;;;;5094145;28;20105;-82
2023/07/10 07:20:43;;;;;;;11.82;6.18;;;;;;;;;;5092889;28;20044;-84
2023/07/10 07:23:10;;;;;;;9.52;5.75;;;;;;;;;;5093148;28;20055;-83
2023/07/10 07:25:40;;;;;;;8.52;5.00;;;;;;;;;;5094273;28;20044;-85
2023/07/10 07:28:07;;;;;;;7.97;4.65;;;;;;;;;;5093556;28;20052;-82
2023/07/10 07:30:34;;;;;;;8.13;5.88;;;;;;;;;;5092174;28;20056;-84
2023/07/10 07:33:02;;;;;;;4.20;3.88;;;;;;;;;;5092683;28;20480;-82
2023/07/10 07:35:29;;;;;;;5.25;3.45;;;;;;;;;;5093620;28;20061;-82
2023/07/10 07:37:57;;;;;;;7.07;4.05;;;;;;;;;;5092698;28;20056;-83
2023/07/10 07:40:25;;;;;;;6.45;3.70;;;;;;;;;;5092253;28;20106;-83
2023/07/10 07:42:52;;;;;;;4.30;3.88;;;;;;;;;;5093000;28;20060;-83
2023/07/10 07:45:19;;;;;;;6.75;3.92;;;;;;;;;;5093487;28;20052;-83
2023/07/10 07:47:47;;;;;;;4.75;3.38;;;;;;;;;;5092570;28;20209;-83
2023/07/10 07:50:15;;;;;;;4.70;3.65;;;;;;;;;;5093540;28;20039;-81
2023/07/10 07:52:43;;;;;;;6.10;3.97;;;;;;;;;;5092243;28;20102;-82
2023/07/10 07:55:10;;;;;;;4.03;3.47;;;;;;;;;;5092162;28;20554;-82
2023/07/10 07:57:38;;;;;;;8.90;4.15;;;;;;;;;;5092250;28;20051;-82
2023/07/10 08:00:06;;;;;;;10.95;3.55;;;;;;;;;;5092988;28;20048;-82
2023/07/10 08:02:33;;;;;;;6.07;3.50;;;;;;;;;;5092032;28;20135;-83
2023/07/10 08:05:01;;;;;;;6.07;3.58;;;;;;;;;;5093269;28;20044;-84
2023/07/10 08:07:28;;;;;;;5.47;3.17;;;;;;;;;;5092104;28;20503;-84
2023/07/10 08:09:56;;;;;;;6.93;3.58;;;;;;;;;;5091767;28;20048;-83
2023/07/10 08:12:23;;;;;;;3.83;3.38;;;;;;;;;;5092607;28;20067;-84
2023/07/10 08:14:50;;;;;;;8.93;3.65;;;;;;;;;;5092912;28;20048;-83
2023/07/10 08:17:17;;;;;;;3.88;3.40;;;;;;;;;;5093287;28;20048;-83
2023/07/10 08:19:45;;;;;;;4.55;3.40;;;;;;;;;;5093261;28;20052;-83
2023/07/10 08:22:12;;;;;;;21.25;4.20;;;;;;;;;;5090855;28;20052;-83
2023/07/10 08:24:40;;;;;;;4.35;3.65;;;;;;;;;;5093008;28;20048;-83
2023/07/10 08:27:08;;;;;;;6.15;2.88;;;;;;;;;;5091887;28;20043;-82
2023/07/10 08:29:35;;;;;;;5.50;2.83;;;;;;;;;;5092008;28;20089;-82
2023/07/10 08:32:03;;;;;;;9.02;2.90;;;;;;;;;;5091548;28;20073;-83
2023/07/10 08:34:31;;;;;;;9.68;3.08;;;;;;;;;;5092739;28;20044;-85
2023/07/10 08:37:01;;;;;;;7.05;3.25;;;;;;;;;;5091668;28;20073;-83
2023/07/10 08:39:28;;;;;;;4.15;3.08;;;;;;;;;;5091793;28;20109;-83
2023/07/10 08:41:57;;;;;;;5.00;2.90;;;;;;;;;;5091304;28;20117;-84
2023/07/10 08:44:30;;;;;;;4.43;2.65;;;;;;;;;;5091572;28;20072;-84
2023/07/10 08:46:58;;;;;;;13.88;4.05;;;;;;;;;;5091448;28;20048;-87
2023/07/10 08:49:35;;;;;;;11.43;3.45;;;;;;;;;;5091937;28;20056;-83
2023/07/10 08:52:07;;;;;;;12.65;3.33;;;;;;;;;;5091948;28;20044;-84
2023/07/10 08:54:35;;;;;;;7.28;3.85;;;;;;;;;;5091787;28;20052;-82
2023/07/10 08:57:05;;;;;;;6.78;3.13;;;;;;;;;;5091785;28;20040;-84
2023/07/10 08:59:42;;;;;;;14.93;4.43;;;;;;;;;;5091064;28;20052;-84
2023/07/10 09:02:15;;;;;;;11.63;3.33;;;;;;;;;;5090844;28;20056;-84
2023/07/10 09:04:43;;;;;;;5.63;3.25;;;;;;;;;;5091499;28;20056;-84
2023/07/10 09:07:11;;;;;;;8.20;3.90;;;;;;;;;;5091535;28;20572;-84
2023/07/10 09:09:41;;;;;;;10.65;3.55;;;;;;;;;;5092769;28;20048;-84
2023/07/10 09:12:13;;;;;;;5.78;3.05;;;;;;;;;;5092813;28;20044;-84
2023/07/10 09:14:44;;;;;;;31.92;5.03;;;;;;;;;;5091569;28;20044;-85
2023/07/10 09:17:20;;;;;;;3.97;3.20;;;;;;;;;;5096218;28;20093;-84
2023/07/10 09:19:52;;;;;;;8.68;3.30;;;;;;;;;;5095594;28;20048;-83
2023/07/10 09:22:20;;;;;;;7.88;3.33;;;;;;;;;;5094991;28;20097;-87
2023/07/10 09:24:47;;;;;;;5.03;3.63;;;;;;;;;;5095067;28;20044;-84
2023/07/10 09:27:15;;;;;;;7.10;3.20;;;;;;;;;;5094801;28;20055;-84
2023/07/10 09:29:44;;;;;;;5.72;2.90;;;;;;;;;;5096194;28;20052;-85
2023/07/10 09:32:16;;;;;;;5.75;3.30;;;;;;;;;;5096161;28;20048;-85
2023/07/10 09:34:48;;;;;;;9.18;4.10;;;;;;;;;;5096342;28;20044;-84
2023/07/10 09:37:18;;;;;;;6.07;3.38;;;;;;;;;;5094750;28;20094;-83
2023/07/10 09:39:45;;;;;;;5.32;3.30;;;;;;;;;;5096089;28;20089;-84
2023/07/10 09:42:14;;;;;;;7.43;3.28;;;;;;;;;;5094608;28;20058;-84
2023/07/10 09:44:46;;;;;;;6.63;3.60;;;;;;;;;;5094608;28;20040;-85
2023/07/10 09:47:15;;;;;;;7.95;3.30;;;;;;;;;;5096092;28;20488;-83
2023/07/10 09:49:52;;;;;;;8.77;3.17;;;;;;;;;;5094362;28;20098;-82
2023/07/10 09:52:32;;;;;;;9.93;3.15;;;;;;;;;;5094231;28;20460;-82
2023/07/10 09:55:01;;;;;;;5.40;3.17;;;;;;;;;;5095708;28;20074;-83
2023/07/10 09:57:29;;;;;;;5.07;3.15;;;;;;;;;;5094557;28;20133;-84
2023/07/10 09:59:59;;;;;;;3.42;3.13;;;;;;;;;;5094573;28;20069;-84
2023/07/10 10:02:34;;;;;;;5.22;2.92;;;;;;;;;;5094131;28;20478;-83
2023/07/10 10:05:15;;;;;;;6.28;2.80;;;;;;;;;;5094294;28;20131;-85
2023/07/10 10:07:43;;;;;;;3.78;3.35;;;;;;;;;;5094736;28;20048;-87
2023/07/10 10:10:21;;;;;;;3.67;3.13;;;;;;;;;;5094303;28;20044;-85
2023/07/10 10:13:07;;;;;;;6.78;3.00;;;;;;;;;;5094607;28;20052;-90
2023/07/10 10:15:34;;;;;;;4.82;3.00;;;;;;;;;;5095158;28;20052;-90
2023/07/10 10:18:03;;;;;;;5.45;3.33;;;;;;;;;;5095093;28;20052;-84
2023/07/10 10:20:33;;;;;;;5.60;2.75;;;;;;;;;;5094398;28;20044;-85
2023/07/10 10:23:00;;;;;;;6.30;2.90;;;;;;;;;;5093675;28;20431;-85
2023/07/10 10:25:32;;;;;;;8.75;2.90;;;;;;;;;;5094708;28;20113;-87
2023/07/10 10:28:13;;;;;;;5.00;2.85;;;;;;;;;;5094232;28;20048;-84
2023/07/10 10:30:43;;;;;;;4.18;2.53;;;;;;;;;;5094233;28;20051;-85
2023/07/10 10:33:20;;;;;;;4.07;2.80;;;;;;;;;;5093875;28;20044;-85
2023/07/10 10:35:56;;;;;;;2.70;2.47;;;;;;;;;;5094842;28;20166;-85
2023/07/10 10:38:30;;;;;;;3.72;2.40;;;;;;;;;;5094272;28;20478;-85
2023/07/10 10:40:57;;;;;;;5.65;2.53;;;;;;;;;;5095086;28;20048;-84
2023/07/10 10:43:34;;;;;;;21.27;3.92;;;;;;;;;;5093791;28;20083;-85
2023/07/10 10:46:11;;;;;;;5.55;2.58;;;;;;;;;;5093824;28;20082;-83
2023/07/10 10:49:02;;;;;;;5.57;2.92;;;;;;;;;;5093743;28;20075;-83
2023/07/10 10:51:31;;;;;;;4.10;3.08;;;;;;;;;;5091714;28;20052;-85
2023/07/10 10:54:17;;;;;;;3.25;2.45;;;;;;;;;;5093313;28;20048;-85
2023/07/10 10:57:17;;;;;;;3.58;2.33;;;;;;;;;;5093511;28;20530;-84
2023/07/10 11:00:07;;;;;;;3.28;2.88;;;;;;;;;;5093305;28;20040;-85
2023/07/10 11:02:49;;;;;;;10.77;2.97;;;;;;;;;;5093201;28;20502;-85
2023/07/10 11:05:36;;;;;;;7.30;2.83;;;;;;;;;;5093139;28;20047;-84
2023/07/10 11:08:04;;;;;;;;;;;;;;;;;;5094695;28;20047;-85
2023/07/10 11:10:33;;;;;;;8.88;3.17;;;;;;;;;;5093559;28;19920;-85
2023/07/10 11:13:00;;;;;;;5.38;3.20;;;;;;;;;;5094060;28;20052;-85
2023/07/10 11:15:29;;;;;;;6.00;3.40;;;;;;;;;;5095248;28;20044;-85
2023/07/10 11:17:57;;;;;;;6.78;3.38;;;;;;;;;;5093217;28;20048;-85
2023/07/10 11:20:26;;;;;;;7.82;3.60;;;;;;;;;;5094583;28;20048;-89
2023/07/10 11:22:55;;;;;;;6.25;3.40;;;;;;;;;;5094932;28;20409;-89
2023/07/10 11:25:33;;;;;;;8.57;3.90;;;;;;;;;;5093499;28;20446;-83
2023/07/10 11:28:04;;;;;;;9.52;3.85;;;;;;;;;;5092147;28;20093;-83
2023/07/10 11:30:35;;;;;;;8.43;4.00;;;;;;;;;;5093977;28;20407;-85
2023/07/10 11:33:04;;;;;;;12.15;4.00;;;;;;;;;;5093094;28;20044;-89
2023/07/10 11:35:32;;;;;;;6.72;3.38;;;;;;;;;;5094125;28;20135;-84
2023/07/10 11:37:59;;;;;;;7.20;3.42;;;;;;;;;;5092610;28;20052;-85
2023/07/10 11:40:29;;;;;;;4.57;3.88;;;;;;;;;;5092745;28;20048;-86
2023/07/10 11:42:59;;;;;;;4.10;3.78;;;;;;;;;;5092869;28;20116;-86
2023/07/10 11:45:35;;;;;;;4.60;4.15;;;;;;;;;;5093262;28;20496;-85
2023/07/10 11:48:02;;;;;;;5.47;4.20;;;;;;;;;;5093094;28;20109;-92
2023/07/10 11:50:30;;;;;;;6.40;3.90;;;;;;;;;;5092984;28;20044;-84
2023/07/10 11:53:08;;;;;;;4.25;3.95;;;;;;;;;;5093478;28;20091;-90
2023/07/10 11:56:01;;;;;;;7.15;4.55;;;;;;;;;;5093126;28;20075;-92
2023/07/10 11:58:30;;;;;;;5.75;4.75;;;;;;;;;;5092713;28;20089;-84
2023/07/10 12:00:59;;;;;;;10.27;4.45;;;;;;;;;;5093472;28;20105;-85
2023/07/10 12:03:30;;;;;;;5.30;4.53;;;;;;;;;;5092290;28;20048;-88
2023/07/10 12:05:57;;;;;;;8.50;4.75;;;;;;;;;;5093535;28;20047;-86
2023/07/10 12:08:29;;;;;;;7.50;4.80;;;;;;;;;;5093341;28;20476;-93
2023/07/10 12:10:56;;;;;;;8.15;4.50;;;;;;;;;;5093814;28;20089;-84
2023/07/10 12:13:31;;;;;;;7.82;4.45;;;;;;;;;;5093333;28;20097;-86
2023/07/10 12:16:05;;;;;;;8.77;5.10;;;;;;;;;;5091791;28;20090;-83
2023/07/10 12:18:34;;;;;;;9.32;4.80;;;;;;;;;;5092588;28;20050;-86
2023/07/10 12:21:04;;;;;;;11.95;5.22;;;;;;;;;;5092390;28;20563;-87
2023/07/10 12:23:31;;;;;;;5.28;4.82;;;;;;;;;;5093663;28;20052;-89
2023/07/10 12:25:59;;;;;;;4.65;4.10;;;;;;;;;;5092886;28;20097;-83
2023/07/10 12:28:26;;;;;;;13.30;4.75;;;;;;;;;;5091817;28;20052;-85
2023/07/10 12:30:57;;;;;;;10.20;4.53;;;;;;;;;;5092212;28;20040;-85
2023/07/10 12:33:33;;;;;;;7.50;4.70;;;;;;;;;;5094309;28;20043;-88
2023/07/10 12:36:02;;;;;;;6.95;5.60;;;;;;;;;;5093135;28;20052;-85
2023/07/10 12:38:31;;;;;;;5.78;4.93;;;;;;;;;;5092049;28;20075;-84
2023/07/10 12:40:58;;;;;;;7.00;5.55;;;;;;;;;;5092491;28;20044;-84
2023/07/10 12:43:26;;;;;;;7.68;5.75;;;;;;;;;;5091544;28;20424;-84
2023/07/10 12:46:23;;;;;;;6.60;6.00;;;;;;;;;;5092069;28;20040;-87
2023/07/10 12:48:56;;;;;;;13.63;5.47;;;;;;;;;;5083351;28;20052;-85
2023/07/10 12:51:32;;;;;;;11.02;5.85;;;;;;;;;;5098307;28;20081;-86
2023/07/10 12:54:01;;;;;;;7.30;5.53;;;;;;;;;;5098591;28;20499;-85
2023/07/10 12:56:33;;;;;;;7.30;5.63;;;;;;;;;;5099798;28;20047;-85
2023/07/10 12:59:13;;;;;;;8.25;6.05;;;;;;;;;;5099646;28;20448;-84
2023/07/10 13:01:47;;;;;;;5.15;4.63;;;;;;;;;;5098282;28;20051;-86
2023/07/10 13:04:25;;;;;;;5.85;4.45;;;;;;;;;;5098664;28;20101;-83
2023/07/10 13:07:00;;;;;;;13.90;5.20;;;;;;;;;;5099254;28;20101;-86
2023/07/10 13:09:46;;;;;;;;;;;;;;;;;;5098968;28;20048;-88
2023/07/10 13:12:19;;;;;;;7.78;5.72;;;;;;;;;;5098629;28;19969;-91
2023/07/10 13:14:47;;;;;;;8.52;6.63;;;;;;;;;;5099768;28;20055;-90
2023/07/10 13:17:14;;;;;;;7.97;7.10;;;;;;;;;;5099223;28;20093;-84
2023/07/10 13:19:41;;;;;;;7.40;6.45;;;;;;;;;;5098626;28;20048;-87
2023/07/10 13:22:25;;;;;;;;;;;;;;;;;;5099654;28;20050;-90
2023/07/10 13:24:52;;;;;;;9.57;6.15;;;;;;;;;;5098424;28;20372;-86
2023/07/10 13:27:20;;;;;;;8.75;7.10;;;;;;;;;;5098876;28;20408;-90
2023/07/10 13:29:48;;;;;;;7.70;6.90;;;;;;;;;;5099084;28;20471;-87
2023/07/10 13:32:16;;;;;;;10.43;7.60;;;;;;;;;;5098551;28;20687;-88
2023/07/10 13:34:44;;;;;;;9.13;6.97;;;;;;;;;;5098571;28;20044;-86
2023/07/10 13:37:22;;;;;;;9.23;6.75;;;;;;;;;;5098473;28;20078;-86
2023/07/10 13:39:50;;;;;;;8.43;6.70;;;;;;;;;;5098036;28;20056;-82
2023/07/10 13:42:19;;;;;;;7.82;7.03;;;;;;;;;;5099498;28;20065;-85
2023/07/10 13:44:46;;;;;;;9.38;7.13;;;;;;;;;;5098925;28;20500;-90
2023/07/10 13:47:15;;;;;;;7.68;6.85;;;;;;;;;;5100562;28;20048;-87
2023/07/10 13:49:43;;;;;;;9.63;6.82;;;;;;;;;;5100110;28;20048;-87
2023/07/10 13:52:15;;;;;;;9.23;6.70;;;;;;;;;;5099241;28;20450;-87
2023/07/10 13:54:42;;;;;;;8.75;7.30;;;;;;;;;;5097819;28;20492;-83
2023/07/10 13:57:15;;;;;;;13.93;7.70;;;;;;;;;;5097983;28;20056;-82
2023/07/10 13:59:42;;;;;;;7.45;6.38;;;;;;;;;;5098735;28;20048;-84
2023/07/10 14:02:29;;;;;;;10.07;6.93;;;;;;;;;;5094816;28;20102;-87
2023/07/10 14:04:58;;;;;;;16.88;7.80;;;;;;;;;;5096013;28;20048;-86
2023/07/10 14:07:26;;;;;;;19.60;8.40;;;;;;;;;;5094968;28;20048;-85
2023/07/10 14:09:54;;;;;;;11.45;7.00;;;;;;;;;;5095120;28;20465;-85
2023/07/10 14:12:22;;;;;;;7.07;6.40;;;;;;;;;;5094491;28;20052;-86
2023/07/10 14:14:49;;;;;;;8.70;6.97;;;;;;;;;;5095610;28;20102;-88
2023/07/10 14:17:21;;;;;;;8.82;7.50;;;;;;;;;;5094931;28;20048;-85
2023/07/10 14:19:49;;;;;;;7.57;6.78;;;;;;;;;;5096178;28;20457;-84
2023/07/10 14:22:17;;;;;;;10.57;6.80;;;;;;;;;;5093970;28;20047;-84
2023/07/10 14:24:44;;;;;;;7.93;6.13;;;;;;;;;;5094367;28;20048;-83
2023/07/10 14:27:22;;;;;;;11.45;6.95;;;;;;;;;;5095153;28;20408;-85
2023/07/10 14:29:49;;;;;;;7.53;6.20;;;;;;;;;;5095160;28;20048;-84
2023/07/10 14:32:18;;;;;;;8.00;6.75;;;;;;;;;;5095035;28;20048;-85
2023/07/10 14:34:45;;;;;;;6.72;6.13;;;;;;;;;;5094160;28;20045;-85
2023/07/10 14:37:14;;;;;;;8.20;6.90;;;;;;;;;;5094937;28;20048;-87
2023/07/10 14:39:41;;;;;;;12.60;6.18;;;;;;;;;;5095064;28;20040;-85
2023/07/10 14:42:12;;;;;;;28.75;9.18;;;;;;;;;;5093504;28;20506;-85
2023/07/10 14:44:40;;;;;;;8.38;6.32;;;;;;;;;;5094123;28;20052;-83
2023/07/10 14:47:19;;;;;;;8.20;6.60;;;;;;;;;;5094883;28;20480;-86
2023/07/10 14:49:46;;;;;;;10.82;6.45;;;;;;;;;;5094629;28;20063;-85
2023/07/10 14:52:21;;;;;;;12.25;6.75;;;;;;;;;;5093535;28;20066;-85